createdAt,value
2023-08-29T00:00:09.626Z,15.20
2023-08-29T00:05:11.112Z,14.00
2023-08-29T00:07:38.874Z,12.90
2023-08-29T00:10:06.357Z,13.30
2023-08-29T00:12:33.366Z,15.00
2023-08-29T00:15:01.143Z,13.90
2023-08-29T00:27:20.927Z,13.10
2023-08-29T00:34:43.337Z,13.40
2023-08-29T00:37:11.432Z,15.10
2023-08-29T00:39:38.305Z,14.60
2023-08-29T00:42:05.277Z,14.80
2023-08-29T00:47:00.034Z,13.60
2023-08-29T00:49:29.060Z,14.10
2023-08-29T00:59:18.389Z,13.30
2023-08-29T01:01:47.745Z,13.20
2023-08-29T01:04:14.748Z,12.20
2023-08-29T01:12:01.968Z,12.00
2023-08-29T01:14:47.886Z,14.50
2023-08-29T01:17:40.512Z,13.20
2023-08-29T01:20:09.463Z,13.10
2023-08-29T01:23:11.694Z,14.20
2023-08-29T01:25:57.783Z,14.50
2023-08-29T01:28:26.411Z,13.20
2023-08-29T01:30:54.166Z,14.40
2023-08-29T01:35:48.867Z,13.40
2023-08-29T01:40:46.302Z,11.60
2023-08-29T01:43:13.444Z,13.20
2023-08-29T01:45:40.885Z,13.50
2023-08-29T01:48:08.376Z,13.00
2023-08-29T01:53:03.956Z,12.90
2023-08-29T01:55:34.135Z,12.90
2023-08-29T01:58:04.011Z,12.90
2023-08-29T02:35:05.121Z,12.50
2023-08-29T02:37:34.154Z,12.60
2023-08-29T02:40:01.212Z,13.10
2023-08-29T02:42:28.133Z,12.50
2023-08-29T02:44:55.879Z,12.80
2023-08-29T02:47:22.699Z,12.70
2023-08-29T02:59:39.036Z,12.30
2023-08-29T03:02:06.273Z,12.40
2023-08-29T03:04:34.035Z,12.70
2023-08-29T03:07:01.053Z,12.40
2023-08-29T03:09:29.950Z,12.80
2023-08-29T03:11:57.397Z,12.40
2023-08-29T03:36:31.049Z,12.00
2023-08-29T03:38:59.034Z,12.10
2023-08-29T03:41:26.319Z,12.50
2023-08-29T03:43:53.251Z,12.20
2023-08-29T03:46:20.135Z,12.20
2023-08-29T03:48:47.034Z,12.40
2023-08-29T03:51:13.900Z,11.90
2023-08-29T03:53:40.745Z,12.10
2023-08-29T03:56:10.737Z,12.30
2023-08-29T03:58:37.933Z,11.90
2023-08-29T04:01:05.736Z,11.90
2023-08-29T04:03:33.342Z,11.90
2023-08-29T04:06:01.392Z,12.20
2023-08-29T04:08:28.258Z,12.20
2023-08-29T04:10:55.195Z,12.10
2023-08-29T04:13:22.195Z,12.50
2023-08-29T04:15:49.635Z,12.10
2023-08-29T04:18:17.268Z,11.80
2023-08-29T04:23:12.512Z,11.80
2023-08-29T04:25:39.647Z,12.00
2023-08-29T04:28:07.507Z,11.70
2023-08-29T04:30:36.548Z,11.70
2023-08-29T04:42:54.449Z,12.60
2023-08-29T04:45:21.395Z,10.40
2023-08-29T04:47:48.672Z,10.70
2023-08-29T04:50:16.405Z,10.50
2023-08-29T04:55:11.302Z,10.60
2023-08-29T05:00:10.759Z,11.30
2023-08-29T05:02:37.796Z,11.30
2023-08-29T05:05:05.143Z,10.10
2023-08-29T05:14:55.736Z,10.50
2023-08-29T05:17:22.736Z,10.50
2023-08-29T05:22:17.693Z,10.60
2023-08-29T05:32:07.324Z,11.90
2023-08-29T05:39:29.202Z,12.20
2023-08-29T05:41:56.195Z,12.00
2023-08-29T05:44:23.144Z,13.00
2023-08-29T05:59:07.156Z,13.30
2023-08-29T06:04:05.673Z,11.60
2023-08-29T06:11:27.898Z,13.70
2023-08-29T06:13:54.808Z,14.20
2023-08-29T06:16:21.695Z,13.10
2023-08-29T06:21:15.866Z,14.50
2023-08-29T06:23:43.309Z,14.10
2023-08-29T06:26:10.335Z,14.70
2023-08-29T06:28:38.254Z,13.70
2023-08-29T06:31:08.494Z,13.60
2023-08-29T06:33:36.730Z,13.60
2023-08-29T06:36:03.897Z,14.50
2023-08-29T06:38:35.917Z,14.50
2023-08-29T06:41:04.327Z,13.50
2023-08-29T06:43:31.559Z,12.60
2023-08-29T06:45:58.568Z,12.80
2023-08-29T06:58:15.234Z,14.20
2023-08-29T07:00:42.251Z,13.70
2023-08-29T07:05:36.728Z,15.10
2023-08-29T07:15:27.002Z,14.20
2023-08-29T07:17:55.041Z,15.90
2023-08-29T07:22:49.544Z,16.50
2023-08-29T07:25:19.200Z,15.30
2023-08-29T07:27:46.547Z,14.40
2023-08-29T07:30:16.477Z,14.80
2023-08-29T07:32:44.800Z,15.50
2023-08-29T07:35:12.005Z,14.70
2023-08-29T07:37:39.013Z,14.80
2023-08-29T07:42:33.575Z,14.90
2023-08-29T07:45:00.872Z,15.20
2023-08-29T07:47:27.962Z,16.60
2023-08-29T07:49:54.877Z,15.70
2023-08-29T07:52:21.758Z,16.30
2023-08-29T07:54:48.797Z,16.10
2023-08-29T07:57:15.671Z,16.00
2023-08-29T07:59:42.985Z,17.80
2023-08-29T08:02:10.007Z,16.20
2023-08-29T08:04:37.512Z,16.80
2023-08-29T08:07:04.618Z,17.60
2023-08-29T08:09:31.596Z,16.80
2023-08-29T08:11:58.631Z,16.90
2023-08-29T08:14:25.562Z,17.50
2023-08-29T08:16:52.621Z,17.20
2023-08-29T08:19:19.563Z,16.10
2023-08-29T08:21:47.405Z,17.60
2023-08-29T08:24:15.049Z,18.30
2023-08-29T08:26:42.000Z,18.40
2023-08-29T08:29:08.991Z,18.30
2023-08-29T08:31:35.936Z,18.50
2023-08-29T08:34:02.953Z,18.20
2023-08-29T08:36:31.868Z,19.10
2023-08-29T08:38:59.263Z,19.30
2023-08-29T08:41:27.068Z,18.10
2023-08-29T08:43:57.735Z,18.10
2023-08-29T08:46:25.449Z,19.50
2023-08-29T08:48:53.686Z,18.20
2023-08-29T08:51:23.336Z,18.30
2023-08-29T08:53:54.058Z,19.80
2023-08-29T08:56:21.190Z,18.50
2023-08-29T08:58:48.234Z,18.60
2023-08-29T09:01:15.192Z,18.70
2023-08-29T09:03:43.861Z,19.80
2023-08-29T09:06:13.883Z,18.90
2023-08-29T09:08:41.033Z,19.00
2023-08-29T09:11:08.127Z,19.10
2023-08-29T09:13:35.116Z,19.30
2023-08-29T09:16:03.223Z,19.40
2023-08-29T09:18:32.863Z,19.40
2023-08-29T09:21:05.863Z,19.60
2023-08-29T09:23:38.365Z,19.70
2023-08-29T09:26:05.554Z,19.80
2023-08-29T09:28:32.879Z,19.80
2023-08-29T09:31:10.834Z,19.80
2023-08-29T09:33:40.186Z,19.90
2023-08-29T09:36:07.607Z,20.00
2023-08-29T09:38:36.010Z,20.00
2023-08-29T09:41:03.482Z,19.50
2023-08-29T09:43:30.862Z,19.90
2023-08-29T09:45:59.220Z,19.80
2023-08-29T09:48:26.378Z,19.60
2023-08-29T09:50:53.358Z,19.70
2023-08-29T09:53:21.356Z,19.80
2023-08-29T09:55:53.389Z,20.00
2023-08-29T09:58:24.944Z,20.30
2023-08-29T10:00:53.246Z,20.50
2023-08-29T10:03:21.020Z,20.80
2023-08-29T10:05:49.748Z,21.00
2023-08-29T10:08:27.037Z,21.30
2023-08-29T10:10:56.608Z,21.70
2023-08-29T10:13:25.143Z,22.10
2023-08-29T10:15:53.144Z,22.30
2023-08-29T10:18:21.063Z,22.40
2023-08-29T10:20:49.937Z,22.50
2023-08-29T10:23:18.800Z,22.50
2023-08-29T10:25:47.005Z,22.80
2023-08-29T10:28:15.915Z,22.70
2023-08-29T10:30:49.656Z,22.70
2023-08-29T10:33:16.801Z,22.60
2023-08-29T10:35:48.030Z,22.70
2023-08-29T10:38:16.465Z,22.50
2023-08-29T10:40:44.525Z,22.50
2023-08-29T10:43:22.885Z,22.40
2023-08-29T10:45:57.060Z,22.30
2023-08-29T10:48:44.709Z,22.20
2023-08-29T10:51:23.833Z,22.20
2023-08-29T10:53:58.266Z,22.30
2023-08-29T10:56:28.936Z,22.50
2023-08-29T10:58:56.747Z,22.50
2023-08-29T11:01:34.647Z,22.40
2023-08-29T11:04:17.025Z,22.50
2023-08-29T11:06:56.985Z,22.80
2023-08-29T11:09:25.520Z,23.30
2023-08-29T11:12:09.942Z,23.60
2023-08-29T11:14:59.375Z,24.00
2023-08-29T11:17:27.518Z,24.40
2023-08-29T11:19:58.670Z,24.40
2023-08-29T11:22:28.040Z,24.40
2023-08-29T11:24:56.483Z,22.80
2023-08-29T11:27:24.911Z,24.10
2023-08-29T11:30:05.786Z,24.00
2023-08-29T11:32:40.663Z,23.80
2023-08-29T11:35:07.919Z,23.70
2023-08-29T11:37:35.668Z,23.80
2023-08-29T11:40:12.386Z,24.00
2023-08-29T11:43:02.834Z,24.20
2023-08-29T11:45:46.406Z,24.10
2023-08-29T11:48:31.893Z,23.80
2023-08-29T11:51:02.027Z,23.50
2023-08-29T11:53:36.627Z,23.10
2023-08-29T11:56:05.903Z,20.50
2023-08-29T11:58:34.861Z,22.60
2023-08-29T12:01:03.031Z,22.50
2023-08-29T12:03:30.169Z,22.30
2023-08-29T12:05:58.390Z,22.20
2023-08-29T12:08:40.738Z,22.10
2023-08-29T12:11:08.990Z,22.00
2023-08-29T12:13:37.563Z,22.10
2023-08-29T12:16:14.159Z,21.40
2023-08-29T12:18:41.773Z,21.50
2023-08-29T12:21:21.393Z,22.40
2023-08-29T12:23:48.542Z,22.90
2023-08-29T12:26:16.211Z,23.70
2023-08-29T12:28:43.371Z,24.20
2023-08-29T12:31:10.810Z,25.20
2023-08-29T12:33:38.169Z,25.70
2023-08-29T12:36:05.763Z,26.10
2023-08-29T12:38:32.937Z,25.90
2023-08-29T12:40:59.949Z,25.70
2023-08-29T12:43:27.027Z,25.50
2023-08-29T12:45:59.835Z,25.70
2023-08-29T12:48:27.868Z,26.00
2023-08-29T12:50:54.847Z,25.90
2023-08-29T12:53:21.699Z,25.60
2023-08-29T12:55:48.689Z,25.40
2023-08-29T12:58:15.668Z,25.30
2023-08-29T13:00:43.298Z,25.10
2023-08-29T13:03:11.106Z,24.80
2023-08-29T13:05:38.650Z,24.70
2023-08-29T13:08:06.040Z,24.60
2023-08-29T13:10:33.698Z,22.90
2023-08-29T13:13:00.644Z,24.20
2023-08-29T13:15:33.975Z,24.00
2023-08-29T13:18:08.501Z,23.80
2023-08-29T13:20:35.637Z,23.60
2023-08-29T13:23:03.082Z,23.50
2023-08-29T13:25:30.160Z,23.30
2023-08-29T13:27:58.905Z,22.30
2023-08-29T13:30:25.842Z,22.90
2023-08-29T13:32:52.859Z,23.50
2023-08-29T13:35:20.616Z,22.40
2023-08-29T13:37:47.644Z,22.20
2023-08-29T13:40:14.656Z,21.70
2023-08-29T13:42:42.775Z,22.00
2023-08-29T13:45:10.106Z,21.90
2023-08-29T13:47:37.116Z,21.80
2023-08-29T13:50:04.478Z,21.70
2023-08-29T13:52:31.415Z,21.40
2023-08-29T13:54:58.465Z,21.30
2023-08-29T13:57:25.399Z,21.20
2023-08-29T13:59:53.431Z,21.00
2023-08-29T14:02:20.885Z,20.70
2023-08-29T14:04:47.854Z,20.40
2023-08-29T14:07:17.001Z,20.50
2023-08-29T14:09:44.406Z,20.40
2023-08-29T14:12:11.342Z,20.10
2023-08-29T14:14:38.306Z,20.40
2023-08-29T14:17:06.194Z,18.50
2023-08-29T14:19:33.379Z,19.50
2023-08-29T14:22:02.424Z,19.90
2023-08-29T14:24:30.078Z,18.10
2023-08-29T14:26:57.070Z,20.70
2023-08-29T14:29:24.620Z,19.70
2023-08-29T14:31:51.538Z,18.10
2023-08-29T14:34:18.773Z,19.50
2023-08-29T14:36:45.691Z,20.60
2023-08-29T14:39:12.715Z,18.10
2023-08-29T14:41:44.718Z,19.30
2023-08-29T14:44:11.992Z,19.20
2023-08-29T14:46:39.008Z,20.60
2023-08-29T14:49:06.023Z,19.30
2023-08-29T14:51:33.047Z,19.20
2023-08-29T14:54:04.311Z,18.80
2023-08-29T14:56:31.796Z,19.20
2023-08-29T14:59:00.681Z,19.50
2023-08-29T15:01:28.021Z,18.20
2023-08-29T15:03:55.195Z,18.10
2023-08-29T15:06:22.266Z,17.90
2023-08-29T15:08:49.269Z,18.80
2023-08-29T15:11:16.884Z,19.50
2023-08-29T15:13:44.060Z,19.20
2023-08-29T15:16:11.151Z,18.00
2023-08-29T15:18:38.264Z,19.40
2023-08-29T15:21:06.811Z,18.00
2023-08-29T15:23:35.111Z,19.40
2023-08-29T15:26:05.329Z,19.50
2023-08-29T15:28:32.706Z,19.80
2023-08-29T15:31:02.522Z,19.40
2023-08-29T15:33:30.455Z,20.70
2023-08-29T15:35:58.266Z,20.00
2023-08-29T15:38:25.719Z,20.90
2023-08-29T15:40:55.991Z,19.00
2023-08-29T15:43:25.454Z,18.60
2023-08-29T15:45:52.922Z,19.60
2023-08-29T15:48:20.156Z,19.60
2023-08-29T15:50:47.525Z,19.70
2023-08-29T15:53:15.409Z,21.30
2023-08-29T15:55:47.002Z,19.90
2023-08-29T15:58:15.516Z,20.20
2023-08-29T16:00:42.700Z,20.40
2023-08-29T16:03:09.793Z,24.10
2023-08-29T16:05:37.198Z,20.70
2023-08-29T16:08:04.779Z,20.80
2023-08-29T16:10:32.242Z,21.10
2023-08-29T16:12:59.342Z,21.00
2023-08-29T16:15:26.245Z,21.10
2023-08-29T16:17:53.347Z,21.20
2023-08-29T16:20:20.417Z,21.30
2023-08-29T16:22:47.874Z,21.40
2023-08-29T16:25:15.622Z,21.50
2023-08-29T16:27:42.899Z,21.70
2023-08-29T16:30:11.849Z,21.80
2023-08-29T16:32:41.332Z,21.80
2023-08-29T16:35:08.917Z,21.80
2023-08-29T16:37:38.692Z,21.80
2023-08-29T16:40:09.733Z,20.90
2023-08-29T16:42:37.072Z,21.80
2023-08-29T16:45:05.478Z,22.10
2023-08-29T16:47:32.633Z,21.80
2023-08-29T16:49:59.598Z,21.70
2023-08-29T16:52:26.563Z,21.60
2023-08-29T16:54:53.549Z,20.20
2023-08-29T16:57:20.558Z,21.50
2023-08-29T16:59:59.472Z,21.80
2023-08-29T17:02:27.273Z,21.00
2023-08-29T17:04:55.291Z,20.50
2023-08-29T17:07:23.228Z,21.10
2023-08-29T17:09:50.190Z,21.30
2023-08-29T17:12:22.444Z,20.10
2023-08-29T17:14:53.208Z,19.80
2023-08-29T17:17:20.796Z,20.60
2023-08-29T17:19:47.846Z,19.90
2023-08-29T17:22:14.754Z,18.90
2023-08-29T17:24:43.171Z,20.30
2023-08-29T17:27:10.169Z,20.30
2023-08-29T17:29:37.283Z,20.30
2023-08-29T17:32:04.832Z,20.20
2023-08-29T17:34:31.937Z,20.20
2023-08-29T17:36:59.611Z,20.20
2023-08-29T17:39:27.000Z,20.10
2023-08-29T17:41:54.672Z,20.00
2023-08-29T17:44:22.580Z,20.00
2023-08-29T17:46:49.580Z,19.90
2023-08-29T17:49:18.430Z,18.50
2023-08-29T17:51:45.863Z,19.70
2023-08-29T17:54:13.314Z,19.60
2023-08-29T17:56:40.785Z,20.70
2023-08-29T17:59:07.745Z,19.50
2023-08-29T18:01:34.742Z,18.30
2023-08-29T18:04:01.740Z,17.90
2023-08-29T18:06:28.752Z,20.00
2023-08-29T18:08:56.389Z,17.80
2023-08-29T18:11:23.449Z,18.00
2023-08-29T18:13:50.565Z,17.60
2023-08-29T18:16:17.515Z,18.90
2023-08-29T18:18:44.518Z,17.70
2023-08-29T18:21:12.672Z,17.00
2023-08-29T18:23:39.958Z,16.80
2023-08-29T18:28:35.054Z,18.10
2023-08-29T18:31:06.344Z,16.70
2023-08-29T18:33:36.278Z,16.40
2023-08-29T18:38:31.407Z,18.90
2023-08-29T18:48:21.557Z,16.00
2023-08-29T18:50:48.409Z,15.90
2023-08-29T18:55:43.287Z,18.20
2023-08-29T19:03:07.073Z,17.30
2023-08-29T19:08:04.433Z,17.90
2023-08-29T19:10:31.473Z,16.30
2023-08-29T19:15:26.088Z,15.50
2023-08-29T19:17:53.003Z,15.10
2023-08-29T19:20:19.994Z,16.60
2023-08-29T19:25:17.995Z,17.60
2023-08-29T19:30:12.531Z,14.80
2023-08-29T19:37:34.819Z,16.40
2023-08-29T19:42:29.054Z,14.70
2023-08-29T19:44:55.914Z,14.60
2023-08-29T19:47:25.883Z,14.60
2023-08-29T19:49:52.997Z,15.40
2023-08-29T19:57:15.522Z,16.60
2023-08-29T20:07:05.221Z,15.30
2023-08-29T20:09:32.680Z,15.30
2023-08-29T20:11:59.769Z,14.50
2023-08-29T20:14:30.050Z,15.50
2023-08-29T20:16:59.266Z,14.30
2023-08-29T20:19:26.486Z,16.30
2023-08-29T20:21:53.523Z,14.10
2023-08-29T20:24:24.363Z,15.10
2023-08-29T20:26:52.288Z,14.00
2023-08-29T20:41:36.941Z,13.50
2023-08-29T20:44:04.082Z,14.70
2023-08-29T20:48:58.401Z,13.40
2023-08-29T20:53:53.168Z,13.30
2023-08-29T20:56:20.680Z,13.30
2023-08-29T21:01:15.531Z,13.20
2023-08-29T21:03:43.249Z,13.20
2023-08-29T21:06:10.255Z,13.40
2023-08-29T21:08:37.151Z,14.80
2023-08-29T21:13:32.227Z,15.50
2023-08-29T21:23:21.929Z,15.60
2023-08-29T21:25:49.760Z,15.30
2023-08-29T21:28:23.831Z,13.70
2023-08-29T21:30:52.952Z,14.20
2023-08-29T21:33:20.690Z,14.20
2023-08-29T21:35:49.475Z,15.50
2023-08-29T21:38:16.732Z,14.90
2023-08-29T21:40:46.403Z,14.90
2023-08-29T21:43:16.533Z,15.10
2023-08-29T21:45:51.466Z,14.80
2023-08-29T21:48:18.527Z,12.80
2023-08-29T21:50:46.032Z,13.90
2023-08-29T21:53:13.784Z,15.20
2023-08-29T21:55:41.862Z,13.90
2023-08-29T21:58:12.692Z,14.10
2023-08-29T22:00:39.775Z,14.60
2023-08-29T22:08:01.761Z,13.10
2023-08-29T22:10:28.598Z,15.20
2023-08-29T22:12:55.747Z,13.70
2023-08-29T22:22:45.139Z,12.90
2023-08-29T22:25:12.183Z,12.80
2023-08-29T22:27:39.090Z,12.90
2023-08-29T22:30:07.075Z,13.50
2023-08-29T22:37:30.236Z,13.00
2023-08-29T22:39:57.251Z,13.20
2023-08-29T22:49:46.774Z,13.00
2023-08-29T22:52:13.746Z,12.90
2023-08-29T22:54:41.872Z,14.90
2023-08-29T22:57:08.752Z,15.50
2023-08-29T22:59:35.933Z,12.90
2023-08-29T23:02:06.708Z,12.80
2023-08-29T23:07:10.791Z,12.80
2023-08-29T23:09:38.281Z,14.50
2023-08-29T23:12:06.292Z,12.90
2023-08-29T23:17:01.668Z,15.30
2023-08-29T23:21:56.045Z,14.00
2023-08-29T23:24:23.530Z,13.30
2023-08-29T23:29:17.696Z,13.20
2023-08-29T23:31:45.367Z,15.00
2023-08-29T23:34:14.184Z,14.80
2023-08-29T23:36:41.207Z,15.00
2023-08-29T23:39:08.423Z,14.80
2023-08-29T23:41:35.778Z,14.60
2023-08-29T23:44:02.703Z,14.70
2023-08-29T23:46:29.988Z,14.00
2023-08-29T23:48:56.864Z,14.00
2023-08-29T23:51:23.844Z,14.50
2023-08-29T23:53:53.596Z,13.10
2023-08-29T23:56:20.625Z,13.80
